createdAt,value
2022-10-03T00:02:21.232Z,100991.00
2022-10-03T00:05:11.040Z,100989.00
2022-10-03T00:08:01.506Z,100985.00
2022-10-03T00:10:55.223Z,100994.00
2022-10-03T00:13:47.988Z,100994.00
2022-10-03T00:17:05.542Z,100998.00
2022-10-03T00:20:36.248Z,101000.00
2022-10-03T00:23:15.473Z,101004.00
2022-10-03T00:26:25.974Z,101003.00
2022-10-03T00:29:08.752Z,101007.00
2022-10-03T00:31:57.686Z,101006.00
2022-10-03T00:34:28.091Z,101016.00
2022-10-03T00:38:04.564Z,101011.00
2022-10-03T00:41:21.225Z,101019.00
2022-10-03T00:44:13.424Z,101024.00
2022-10-03T00:47:28.461Z,101023.00
2022-10-03T00:50:29.742Z,101024.00
2022-10-03T00:53:33.825Z,101028.00
2022-10-03T00:56:48.352Z,101032.00
2022-10-03T01:00:21.825Z,101031.00
2022-10-03T01:02:52.339Z,101030.00
2022-10-03T01:06:04.782Z,101031.00
2022-10-03T01:09:12.992Z,101041.00
2022-10-03T01:12:23.470Z,101046.00
2022-10-03T01:15:09.249Z,101045.00
2022-10-03T01:18:11.088Z,101043.00
2022-10-03T01:21:06.851Z,101048.00
2022-10-03T01:24:17.137Z,101057.00
2022-10-03T01:27:14.445Z,101055.00
2022-10-03T01:30:11.727Z,101058.00
2022-10-03T01:33:38.089Z,101052.00
2022-10-03T01:36:25.805Z,101060.00
2022-10-03T01:39:10.320Z,101058.00
2022-10-03T01:42:08.951Z,101062.00
2022-10-03T01:44:54.928Z,101059.00
2022-10-03T01:47:45.297Z,101061.00
2022-10-03T01:50:49.980Z,101064.00
2022-10-03T01:54:02.475Z,101068.00
2022-10-03T01:57:00.873Z,101068.00
2022-10-03T01:59:35.134Z,101072.00
2022-10-03T02:02:28.019Z,101073.00
2022-10-03T02:05:20.552Z,101079.00
2022-10-03T02:08:18.666Z,101083.00
2022-10-03T02:11:09.904Z,101088.00
2022-10-03T02:13:50.494Z,101088.00
2022-10-03T02:17:20.919Z,101088.00
2022-10-03T02:20:01.053Z,101096.00
2022-10-03T02:22:47.097Z,101102.00
2022-10-03T02:25:35.977Z,101093.00
2022-10-03T02:29:05.020Z,101099.00
2022-10-03T02:31:57.244Z,101106.00
2022-10-03T02:34:56.794Z,101104.00
2022-10-03T02:37:59.892Z,101103.00
2022-10-03T02:41:23.525Z,101112.00
2022-10-03T02:44:17.410Z,101110.00
2022-10-03T02:47:15.234Z,101121.00
2022-10-03T02:50:15.678Z,101118.00
2022-10-03T02:53:09.076Z,101116.00
2022-10-03T02:56:29.843Z,101122.00
2022-10-03T02:59:34.038Z,101119.00
2022-10-03T03:02:30.226Z,101112.00
2022-10-03T03:05:22.968Z,101110.00
2022-10-03T03:08:13.645Z,101120.00
2022-10-03T03:10:59.191Z,101135.00
2022-10-03T03:14:24.909Z,101134.00
2022-10-03T03:17:31.151Z,101130.00
2022-10-03T03:20:34.691Z,101131.00
2022-10-03T03:23:36.678Z,101139.00
2022-10-03T03:26:16.149Z,101138.00
2022-10-03T03:28:55.938Z,101140.00
2022-10-03T03:32:03.771Z,101145.00
2022-10-03T03:35:10.715Z,101145.00
2022-10-03T03:38:01.799Z,101144.00
2022-10-03T03:40:58.617Z,101142.00
2022-10-03T03:44:00.298Z,101146.00
2022-10-03T03:46:42.593Z,101145.00
2022-10-03T03:49:42.889Z,101151.00
2022-10-03T03:52:25.050Z,101149.00
2022-10-03T03:55:32.051Z,101155.00
2022-10-03T03:58:20.928Z,101141.00
2022-10-03T04:01:06.894Z,101145.00
2022-10-03T04:03:54.408Z,101148.00
2022-10-03T04:06:41.093Z,101152.00
2022-10-03T04:09:43.929Z,101154.00
2022-10-03T04:12:37.259Z,101159.00
2022-10-03T04:15:43.588Z,101157.00
2022-10-03T04:18:51.872Z,101163.00
2022-10-03T04:21:58.665Z,101162.00
2022-10-03T04:24:32.234Z,101162.00
2022-10-03T04:27:30.395Z,101165.00
2022-10-03T04:30:20.171Z,101164.00
2022-10-03T04:33:09.569Z,101155.00
2022-10-03T04:36:39.099Z,101171.00
2022-10-03T04:39:50.069Z,101167.00
2022-10-03T04:42:47.313Z,101162.00
2022-10-03T04:45:40.840Z,101160.00
2022-10-03T04:48:57.273Z,101160.00
2022-10-03T04:51:52.093Z,101163.00
2022-10-03T04:54:56.812Z,101164.00
2022-10-03T04:58:04.725Z,101170.00
2022-10-03T05:00:41.810Z,101166.00
2022-10-03T05:03:34.811Z,101169.00
2022-10-03T05:06:28.431Z,101176.00
2022-10-03T05:09:39.646Z,101177.00
2022-10-03T05:12:29.005Z,101177.00
2022-10-03T05:15:11.902Z,101179.00
2022-10-03T05:18:09.728Z,101188.00
2022-10-03T05:20:49.008Z,101186.00
2022-10-03T05:24:02.999Z,101191.00
2022-10-03T05:27:25.486Z,101201.00
2022-10-03T05:30:35.091Z,101208.00
2022-10-03T05:33:46.581Z,101203.00
2022-10-03T05:36:43.511Z,101215.00
2022-10-03T05:39:29.331Z,101209.00
2022-10-03T05:42:34.087Z,101221.00
2022-10-03T05:45:30.773Z,101220.00
2022-10-03T05:48:44.840Z,101226.00
2022-10-03T05:51:55.591Z,101230.00
2022-10-03T05:55:04.839Z,101231.00
2022-10-03T05:57:47.429Z,101232.00
2022-10-03T06:00:26.418Z,101237.00
2022-10-03T06:03:30.828Z,101235.00
2022-10-03T06:06:40.124Z,101239.00
2022-10-03T06:09:42.615Z,101244.00
2022-10-03T06:12:45.285Z,101242.00
2022-10-03T06:15:54.483Z,101249.00
2022-10-03T06:18:43.267Z,101257.00
2022-10-03T06:21:32.582Z,101248.00
2022-10-03T06:24:37.334Z,101255.00
2022-10-03T06:27:57.454Z,101261.00
2022-10-03T06:31:17.469Z,101270.00
2022-10-03T06:34:25.231Z,101271.00
2022-10-03T06:37:34.623Z,101268.00
2022-10-03T06:40:49.917Z,101268.00
2022-10-03T06:44:11.976Z,101274.00
2022-10-03T06:46:45.862Z,101278.00
2022-10-03T06:49:56.816Z,101274.00
2022-10-03T06:53:05.436Z,101280.00
2022-10-03T06:56:16.513Z,101281.00
2022-10-03T06:59:10.930Z,101280.00
2022-10-03T07:02:15.666Z,101282.00
2022-10-03T07:05:42.278Z,101272.00
2022-10-03T07:09:02.193Z,101288.00
2022-10-03T07:11:35.195Z,101291.00
2022-10-03T07:14:16.983Z,101293.00
2022-10-03T07:17:12.121Z,101292.00
2022-10-03T07:20:23.469Z,101285.00
2022-10-03T07:23:32.489Z,101297.00
2022-10-03T07:26:58.281Z,101293.00
2022-10-03T07:29:58.034Z,101302.00
2022-10-03T07:32:58.468Z,101298.00
2022-10-03T07:36:03.354Z,101302.00
2022-10-03T07:38:58.249Z,101307.00
2022-10-03T07:42:00.833Z,101310.00
2022-10-03T07:44:58.667Z,101316.00
2022-10-03T07:48:13.507Z,101315.00
2022-10-03T07:51:17.442Z,101319.00
2022-10-03T07:54:27.850Z,101317.00
2022-10-03T07:57:04.516Z,101320.00
2022-10-03T08:00:12.957Z,101328.00
2022-10-03T08:03:22.685Z,101318.00
2022-10-03T08:06:56.155Z,101332.00
2022-10-03T08:09:29.236Z,101335.00
2022-10-03T08:12:35.487Z,101331.00
2022-10-03T08:15:29.759Z,101329.00
2022-10-03T08:19:09.771Z,101335.00
2022-10-03T08:22:11.051Z,101335.00
2022-10-03T08:24:53.822Z,101333.00
2022-10-03T08:27:55.906Z,101334.00
2022-10-03T08:31:12.791Z,101333.00
2022-10-03T08:33:58.542Z,101336.00
2022-10-03T08:36:59.077Z,101340.00
2022-10-03T08:40:15.744Z,101342.00
2022-10-03T08:42:49.334Z,101346.00
2022-10-03T08:45:59.718Z,101343.00
2022-10-03T08:48:48.804Z,101347.00
2022-10-03T08:51:38.284Z,101356.00
2022-10-03T08:54:17.828Z,101347.00
2022-10-03T08:57:36.255Z,101351.00
2022-10-03T09:00:20.658Z,101346.00
2022-10-03T09:03:33.498Z,101357.00
2022-10-03T09:07:05.150Z,101352.00
2022-10-03T09:10:27.713Z,101350.00
2022-10-03T09:13:26.095Z,101343.00
2022-10-03T09:16:16.181Z,101347.00
2022-10-03T09:19:37.134Z,101352.00
2022-10-03T09:22:58.935Z,101356.00
2022-10-03T09:25:39.213Z,101362.00
2022-10-03T09:28:31.327Z,101364.00
2022-10-03T09:31:14.814Z,101369.00
2022-10-03T09:34:13.288Z,101367.00
2022-10-03T09:37:37.614Z,101371.00
2022-10-03T09:40:35.068Z,101366.00
2022-10-03T09:43:49.207Z,101371.00
2022-10-03T09:46:28.661Z,101362.00
2022-10-03T09:49:02.428Z,101364.00
2022-10-03T09:52:24.933Z,101369.00
2022-10-03T09:55:49.288Z,101368.00
2022-10-03T09:58:53.322Z,101371.00
2022-10-03T10:01:59.771Z,101381.00
2022-10-03T10:04:56.949Z,101381.00
2022-10-03T10:08:05.941Z,101375.00
2022-10-03T10:11:12.101Z,101375.00
2022-10-03T10:14:08.679Z,101373.00
2022-10-03T10:17:11.942Z,101368.00
2022-10-03T10:20:19.328Z,101373.00
2022-10-03T10:23:11.438Z,101375.00
2022-10-03T10:26:12.697Z,101375.00
2022-10-03T10:29:41.623Z,101360.00
2022-10-03T10:33:05.392Z,101359.00
2022-10-03T10:36:18.451Z,101364.00
2022-10-03T10:39:34.552Z,101352.00
2022-10-03T10:42:39.497Z,101350.00
2022-10-03T10:45:48.505Z,101352.00
2022-10-03T10:49:03.691Z,101352.00
2022-10-03T10:51:43.050Z,101352.00
2022-10-03T10:54:25.334Z,101360.00
2022-10-03T10:57:40.815Z,101361.00
2022-10-03T11:00:40.497Z,101357.00
2022-10-03T11:03:48.636Z,101351.00
2022-10-03T11:06:27.934Z,101360.00
2022-10-03T11:09:34.131Z,101355.00
2022-10-03T11:12:16.441Z,101350.00
2022-10-03T11:15:31.159Z,101355.00
2022-10-03T11:18:54.722Z,101349.00
2022-10-03T11:22:02.455Z,101365.00
2022-10-03T11:25:34.899Z,101374.00
2022-10-03T11:28:34.594Z,101372.00
2022-10-03T11:31:23.644Z,101383.00
2022-10-03T11:34:28.938Z,101364.00
2022-10-03T11:37:21.762Z,101368.00
2022-10-03T11:40:17.182Z,101369.00
2022-10-03T11:43:09.135Z,101367.00
2022-10-03T11:45:56.287Z,101359.00
2022-10-03T11:49:01.865Z,101357.00
2022-10-03T11:52:09.449Z,101364.00
2022-10-03T11:54:42.418Z,101355.00
2022-10-03T11:57:22.740Z,101363.00
2022-10-03T12:00:00.461Z,101365.00
2022-10-03T12:03:17.509Z,101369.00
2022-10-03T12:05:53.535Z,101363.00
2022-10-03T12:08:52.267Z,101367.00
2022-10-03T12:11:38.512Z,101365.00
2022-10-03T12:14:49.575Z,101363.00
2022-10-03T12:17:24.127Z,101361.00
2022-10-03T12:20:17.597Z,101348.00
2022-10-03T12:23:41.752Z,101351.00
2022-10-03T12:26:18.226Z,101343.00
2022-10-03T12:28:53.313Z,101334.00
2022-10-03T12:31:36.025Z,101339.00
2022-10-03T12:34:41.446Z,101332.00
2022-10-03T12:37:23.775Z,101330.00
2022-10-03T12:40:20.611Z,101329.00
2022-10-03T12:43:31.551Z,101335.00
2022-10-03T12:46:16.561Z,101338.00
2022-10-03T12:49:35.604Z,101333.00
2022-10-03T12:52:30.313Z,101336.00
2022-10-03T12:55:29.409Z,101338.00
2022-10-03T12:58:44.811Z,101335.00
2022-10-03T13:01:30.937Z,101334.00
2022-10-03T13:04:00.963Z,101330.00
2022-10-03T13:07:04.140Z,101328.00
2022-10-03T13:10:02.020Z,101332.00
2022-10-03T13:12:55.830Z,101332.00
2022-10-03T13:15:39.229Z,101330.00
2022-10-03T13:18:29.375Z,101322.00
2022-10-03T13:21:26.833Z,101324.00
2022-10-03T13:24:32.577Z,101331.00
2022-10-03T13:27:25.719Z,101323.00
2022-10-03T13:30:06.407Z,101335.00
2022-10-03T13:32:39.602Z,101330.00
2022-10-03T13:36:00.352Z,101324.00
2022-10-03T13:39:05.378Z,101326.00
2022-10-03T13:42:00.420Z,101321.00
2022-10-03T13:45:01.301Z,101330.00
2022-10-03T13:47:31.260Z,101327.00
2022-10-03T13:50:12.816Z,101329.00
2022-10-03T13:53:22.206Z,101335.00
2022-10-03T13:55:57.587Z,101321.00
2022-10-03T13:58:46.463Z,101329.00
2022-10-03T14:01:56.974Z,101330.00
2022-10-03T14:04:36.544Z,101330.00
2022-10-03T14:08:07.032Z,101330.00
2022-10-03T14:11:11.316Z,101331.00
2022-10-03T14:14:01.383Z,101321.00
2022-10-03T14:16:54.047Z,101321.00
2022-10-03T14:20:13.689Z,101314.00
2022-10-03T14:23:21.141Z,101318.00
2022-10-03T14:26:21.539Z,101310.00
2022-10-03T14:29:26.224Z,101315.00
2022-10-03T14:32:48.605Z,101311.00
2022-10-03T14:35:53.140Z,101300.00
2022-10-03T14:39:03.564Z,101299.00
2022-10-03T14:41:55.276Z,101306.00
2022-10-03T14:44:38.510Z,101296.00
2022-10-03T14:47:14.303Z,101304.00
2022-10-03T14:49:59.130Z,101301.00
2022-10-03T14:53:02.607Z,101304.00
2022-10-03T14:55:43.967Z,101306.00
2022-10-03T14:58:23.698Z,101300.00
2022-10-03T15:01:12.714Z,101302.00
2022-10-03T15:04:02.450Z,101298.00
2022-10-03T15:06:45.080Z,101304.00
2022-10-03T15:09:19.411Z,101302.00
2022-10-03T15:11:59.863Z,101300.00
2022-10-03T15:14:31.358Z,101294.00
2022-10-03T15:17:02.035Z,101298.00
2022-10-03T15:19:55.252Z,101287.00
2022-10-03T15:22:36.890Z,101292.00
2022-10-03T15:25:36.864Z,101286.00
2022-10-03T15:28:13.626Z,101296.00
2022-10-03T15:30:42.651Z,101285.00
2022-10-03T15:33:21.514Z,101290.00
2022-10-03T15:35:55.729Z,101290.00
2022-10-03T15:38:29.770Z,101286.00
2022-10-03T15:41:20.337Z,101298.00
2022-10-03T15:43:51.128Z,101298.00
2022-10-03T15:46:46.608Z,101293.00
2022-10-03T15:49:54.706Z,101285.00
2022-10-03T15:52:32.193Z,101286.00
2022-10-03T15:55:12.621Z,101285.00
2022-10-03T15:57:48.025Z,101296.00
2022-10-03T16:00:34.334Z,101284.00
2022-10-03T16:03:30.250Z,101292.00
2022-10-03T16:06:47.855Z,101296.00
2022-10-03T16:09:33.573Z,101290.00
2022-10-03T16:12:17.960Z,101277.00
2022-10-03T16:14:51.819Z,101282.00
2022-10-03T16:17:30.338Z,101290.00
2022-10-03T16:20:11.350Z,101292.00
2022-10-03T16:22:49.945Z,101282.00
2022-10-03T16:25:25.308Z,101280.00
2022-10-03T16:28:01.062Z,101280.00
2022-10-03T16:30:58.574Z,101283.00
2022-10-03T16:34:06.978Z,101273.00
2022-10-03T16:36:47.301Z,101280.00
2022-10-03T16:39:43.355Z,101277.00
2022-10-03T16:42:26.457Z,101269.00
2022-10-03T16:44:58.218Z,101270.00
2022-10-03T16:47:44.533Z,101271.00
2022-10-03T16:50:28.236Z,101269.00
2022-10-03T16:52:59.326Z,101270.00
2022-10-03T16:56:00.086Z,101272.00
2022-10-03T16:58:36.397Z,101277.00
2022-10-03T17:01:37.922Z,101269.00
2022-10-03T17:04:39.644Z,101267.00
2022-10-03T17:07:23.943Z,101268.00
2022-10-03T17:09:57.691Z,101269.00
2022-10-03T17:12:34.110Z,101282.00
2022-10-03T17:15:42.404Z,101273.00
2022-10-03T17:18:25.764Z,101276.00
2022-10-03T17:21:09.474Z,101282.00
2022-10-03T17:24:30.412Z,101278.00
2022-10-03T17:27:04.454Z,101279.00
2022-10-03T17:29:42.351Z,101287.00
2022-10-03T17:32:36.715Z,101291.00
2022-10-03T17:35:32.997Z,101288.00
2022-10-03T17:38:48.903Z,101293.00
2022-10-03T17:41:33.849Z,101294.00
2022-10-03T17:44:51.585Z,101295.00
2022-10-03T17:47:28.971Z,101290.00
2022-10-03T17:50:15.852Z,101291.00
2022-10-03T17:52:46.893Z,101291.00
2022-10-03T17:55:23.119Z,101288.00
2022-10-03T17:58:03.278Z,101283.00
2022-10-03T18:01:00.328Z,101290.00
2022-10-03T18:03:49.241Z,101285.00
2022-10-03T18:06:45.761Z,101285.00
2022-10-03T18:09:16.161Z,101282.00
2022-10-03T18:11:45.442Z,101284.00
2022-10-03T18:14:43.207Z,101278.00
2022-10-03T18:17:19.685Z,101291.00
2022-10-03T18:20:26.412Z,101293.00
2022-10-03T18:23:04.456Z,101285.00
2022-10-03T18:26:18.539Z,101294.00
2022-10-03T18:29:35.053Z,101288.00
2022-10-03T18:32:12.690Z,101295.00
2022-10-03T18:34:49.430Z,101292.00
2022-10-03T18:37:28.884Z,101295.00
2022-10-03T18:39:59.060Z,101293.00
2022-10-03T18:42:30.039Z,101289.00
2022-10-03T18:45:00.553Z,101293.00
2022-10-03T18:47:39.955Z,101286.00
2022-10-03T18:50:56.748Z,101289.00
2022-10-03T18:53:38.235Z,101285.00
2022-10-03T18:56:20.228Z,101287.00
2022-10-03T18:59:39.553Z,101286.00
2022-10-03T19:02:37.048Z,101295.00
2022-10-03T19:05:21.321Z,101292.00
2022-10-03T19:08:23.127Z,101292.00
2022-10-03T19:11:08.156Z,101288.00
2022-10-03T19:13:57.198Z,101288.00
2022-10-03T19:17:16.523Z,101290.00
2022-10-03T19:19:59.044Z,101289.00
2022-10-03T19:22:52.730Z,101288.00
2022-10-03T19:25:23.717Z,101297.00
2022-10-03T19:28:02.617Z,101286.00
2022-10-03T19:30:33.064Z,101287.00
2022-10-03T19:33:08.381Z,101287.00
2022-10-03T19:35:45.140Z,101293.00
2022-10-03T19:38:46.225Z,101286.00
2022-10-03T19:41:39.560Z,101285.00
2022-10-03T19:44:17.261Z,101287.00
2022-10-03T19:46:50.484Z,101281.00
2022-10-03T19:49:33.766Z,101284.00
2022-10-03T19:52:34.767Z,101285.00
2022-10-03T19:55:25.076Z,101281.00
2022-10-03T19:58:03.535Z,101287.00
2022-10-03T20:00:37.674Z,101290.00
2022-10-03T20:03:07.567Z,101285.00
2022-10-03T20:05:49.823Z,101280.00
2022-10-03T20:08:26.361Z,101284.00
2022-10-03T20:11:34.968Z,101276.00
2022-10-03T20:14:06.454Z,101274.00
2022-10-03T20:16:43.235Z,101282.00
2022-10-03T20:19:15.248Z,101274.00
2022-10-03T20:21:43.340Z,101278.00
2022-10-03T20:24:28.135Z,101278.00
2022-10-03T20:27:30.374Z,101282.00
2022-10-03T20:30:06.850Z,101286.00
2022-10-03T20:32:38.350Z,101285.00
2022-10-03T20:35:06.287Z,101289.00
2022-10-03T20:37:47.217Z,101279.00
2022-10-03T20:40:44.212Z,101289.00
2022-10-03T20:43:54.857Z,101289.00
2022-10-03T20:46:45.982Z,101284.00
2022-10-03T20:49:20.707Z,101287.00
2022-10-03T20:51:54.473Z,101283.00
2022-10-03T20:54:26.985Z,101289.00
2022-10-03T20:57:05.516Z,101288.00
2022-10-03T20:59:48.847Z,101289.00
2022-10-03T21:02:19.512Z,101291.00
2022-10-03T21:04:57.547Z,101288.00
2022-10-03T21:07:58.897Z,101286.00
2022-10-03T21:10:37.486Z,101284.00
2022-10-03T21:13:15.843Z,101290.00
2022-10-03T21:15:53.916Z,101285.00
2022-10-03T21:18:31.348Z,101283.00
2022-10-03T21:21:28.062Z,101287.00
2022-10-03T21:24:26.240Z,101284.00
2022-10-03T21:27:12.077Z,101281.00
2022-10-03T21:30:02.451Z,101279.00
2022-10-03T21:32:54.528Z,101281.00
2022-10-03T21:35:30.750Z,101282.00
2022-10-03T21:38:19.506Z,101266.00
2022-10-03T21:41:08.822Z,101279.00
2022-10-03T21:43:39.268Z,101271.00
2022-10-03T21:46:31.405Z,101268.00
2022-10-03T21:49:28.015Z,101274.00
2022-10-03T21:52:01.557Z,101268.00
2022-10-03T21:54:36.712Z,101263.00
2022-10-03T21:57:48.420Z,101271.00
2022-10-03T22:00:20.964Z,101258.00
2022-10-03T22:02:57.535Z,101253.00
2022-10-03T22:05:56.463Z,101260.00
2022-10-03T22:08:29.087Z,101249.00
2022-10-03T22:11:02.924Z,101251.00
2022-10-03T22:13:36.250Z,101256.00
2022-10-03T22:16:22.408Z,101241.00
2022-10-03T22:19:22.647Z,101243.00
2022-10-03T22:22:29.027Z,101245.00
2022-10-03T22:25:15.089Z,101244.00
2022-10-03T22:27:51.359Z,101238.00
2022-10-03T22:30:21.141Z,101232.00
2022-10-03T22:33:17.093Z,101241.00
2022-10-03T22:35:55.996Z,101237.00
2022-10-03T22:38:28.629Z,101231.00
2022-10-03T22:41:00.517Z,101238.00
2022-10-03T22:43:29.314Z,101239.00
2022-10-03T22:45:58.263Z,101235.00
2022-10-03T22:48:33.633Z,101235.00
2022-10-03T22:51:02.902Z,101232.00
2022-10-03T22:53:33.772Z,101229.00
2022-10-03T22:56:23.691Z,101235.00
2022-10-03T22:58:52.223Z,101233.00
2022-10-03T23:01:20.104Z,101232.00
2022-10-03T23:03:48.102Z,101227.00
2022-10-03T23:06:34.035Z,101227.00
2022-10-03T23:09:10.598Z,101239.00
2022-10-03T23:11:40.270Z,101231.00
2022-10-03T23:14:35.605Z,101237.00
2022-10-03T23:17:39.006Z,101241.00
2022-10-03T23:20:51.514Z,101236.00
2022-10-03T23:23:28.958Z,101236.00
2022-10-03T23:26:15.334Z,101228.00
2022-10-03T23:28:57.476Z,101223.00
2022-10-03T23:31:56.317Z,101219.00
2022-10-03T23:34:38.225Z,101225.00
2022-10-03T23:37:15.071Z,101226.00
2022-10-03T23:39:56.279Z,101236.00
2022-10-03T23:42:31.169Z,101237.00
2022-10-03T23:44:58.815Z,101240.00
2022-10-03T23:47:42.469Z,101236.00
2022-10-03T23:50:12.802Z,101240.00
2022-10-03T23:52:47.472Z,101227.00
2022-10-03T23:55:23.528Z,101230.00
2022-10-03T23:57:51.312Z,101232.00
